Terminal Aerodrome Forecast
Issued by NWS Twin Cities, MN

Home | Current Version | Previous Version | Text Only | Print | Product List | Glossary Off
Versions: 1 2 3 4 5 6 7 8 9 10 11 12 13 14 15 16 17 18 19

041
FTUS43 KMPX 091720
TAFEAU
TAF
KEAU 091720Z 0918/1018 32011KT P6SM BKN027
     FM092100 30008KT P6SM SCT025 BKN120
     FM100100 23005KT P6SM OVC080
     FM100600 20005KT P6SM BKN050 OVC080
     FM101200 30008KT P6SM SCT025 OVC040=

USA.gov is the U.S. government's official web portal to all federal, state and local government web resources and services.